sensor_id;sensor_type;location;lat;lon;timestamp;P1;durP1;ratioP1;P2;durP2;ratioP2
974;SDS011;6115;49.296;10.602;2023-04-15T00:01:43;5.73;;;4.63;;
974;SDS011;6115;49.296;10.602;2023-04-15T00:06:51;5.73;;;4.63;;
974;SDS011;6115;49.296;10.602;2023-04-15T00:11:52;6.07;;;5.37;;
974;SDS011;6115;49.296;10.602;2023-04-15T00:16:55;6.33;;;4.60;;
974;SDS011;6115;49.296;10.602;2023-04-15T00:21:56;6.27;;;4.63;;
974;SDS011;6115;49.296;10.602;2023-04-15T00:26:56;5.00;;;4.50;;
974;SDS011;6115;49.296;10.602;2023-04-15T00:31:57;7.93;;;4.47;;
974;SDS011;6115;49.296;10.602;2023-04-15T00:36:58;8.17;;;5.33;;
974;SDS011;6115;49.296;10.602;2023-04-15T00:41:58;5.93;;;4.90;;
974;SDS011;6115;49.296;10.602;2023-04-15T00:46:59;5.90;;;5.00;;
974;SDS011;6115;49.296;10.602;2023-04-15T00:52:01;5.67;;;4.60;;
974;SDS011;6115;49.296;10.602;2023-04-15T00:57:01;5.47;;;4.20;;
974;SDS011;6115;49.296;10.602;2023-04-15T01:02:05;5.37;;;4.83;;
974;SDS011;6115;49.296;10.602;2023-04-15T01:07:06;6.47;;;4.53;;
974;SDS011;6115;49.296;10.602;2023-04-15T01:12:07;7.60;;;5.00;;
974;SDS011;6115;49.296;10.602;2023-04-15T01:17:10;6.40;;;5.30;;
974;SDS011;6115;49.296;10.602;2023-04-15T01:22:12;6.00;;;4.73;;
974;SDS011;6115;49.296;10.602;2023-04-15T01:27:12;6.80;;;5.30;;
974;SDS011;6115;49.296;10.602;2023-04-15T01:32:13;7.83;;;5.93;;
974;SDS011;6115;49.296;10.602;2023-04-15T01:37:14;6.30;;;5.10;;
974;SDS011;6115;49.296;10.602;2023-04-15T01:42:15;5.27;;;4.53;;
974;SDS011;6115;49.296;10.602;2023-04-15T01:47:16;7.33;;;5.00;;
974;SDS011;6115;49.296;10.602;2023-04-15T01:52:16;6.70;;;5.20;;
974;SDS011;6115;49.296;10.602;2023-04-15T01:57:17;6.97;;;5.30;;
974;SDS011;6115;49.296;10.602;2023-04-15T02:02:17;7.20;;;5.33;;
974;SDS011;6115;49.296;10.602;2023-04-15T02:07:18;6.43;;;5.00;;
974;SDS011;6115;49.296;10.602;2023-04-15T02:12:18;8.03;;;4.67;;
974;SDS011;6115;49.296;10.602;2023-04-15T02:17:20;5.93;;;5.20;;
974;SDS011;6115;49.296;10.602;2023-04-15T02:22:20;7.23;;;5.60;;
974;SDS011;6115;49.296;10.602;2023-04-15T02:27:21;9.23;;;5.23;;
974;SDS011;6115;49.296;10.602;2023-04-15T02:32:21;7.93;;;5.37;;
974;SDS011;6115;49.296;10.602;2023-04-15T02:37:23;8.70;;;5.80;;
974;SDS011;6115;49.296;10.602;2023-04-15T02:42:26;6.03;;;5.10;;
974;SDS011;6115;49.296;10.602;2023-04-15T02:47:27;7.37;;;5.30;;
974;SDS011;6115;49.296;10.602;2023-04-15T02:52:28;8.27;;;6.33;;
974;SDS011;6115;49.296;10.602;2023-04-15T02:57:28;6.87;;;5.30;;
974;SDS011;6115;49.296;10.602;2023-04-15T03:02:32;7.57;;;5.90;;
974;SDS011;6115;49.296;10.602;2023-04-15T03:07:40;6.20;;;5.43;;
974;SDS011;6115;49.296;10.602;2023-04-15T03:12:41;7.70;;;6.10;;
974;SDS011;6115;49.296;10.602;2023-04-15T03:17:41;7.10;;;5.73;;
974;SDS011;6115;49.296;10.602;2023-04-15T03:22:42;8.20;;;6.00;;
974;SDS011;6115;49.296;10.602;2023-04-15T03:27:43;7.10;;;5.73;;
974;SDS011;6115;49.296;10.602;2023-04-15T03:32:43;8.37;;;5.47;;
974;SDS011;6115;49.296;10.602;2023-04-15T03:37:44;10.07;;;5.60;;
974;SDS011;6115;49.296;10.602;2023-04-15T03:42:44;7.53;;;5.47;;
974;SDS011;6115;49.296;10.602;2023-04-15T03:47:45;7.20;;;6.20;;
974;SDS011;6115;49.296;10.602;2023-04-15T03:52:46;7.90;;;5.47;;
974;SDS011;6115;49.296;10.602;2023-04-15T03:57:46;8.07;;;6.50;;
974;SDS011;6115;49.296;10.602;2023-04-15T04:02:47;8.43;;;7.10;;
974;SDS011;6115;49.296;10.602;2023-04-15T04:07:47;8.30;;;5.80;;
974;SDS011;6115;49.296;10.602;2023-04-15T04:12:49;7.40;;;5.83;;
974;SDS011;6115;49.296;10.602;2023-04-15T04:17:50;6.30;;;5.50;;
974;SDS011;6115;49.296;10.602;2023-04-15T04:22:51;8.70;;;6.00;;
974;SDS011;6115;49.296;10.602;2023-04-15T04:27:51;10.40;;;6.20;;
974;SDS011;6115;49.296;10.602;2023-04-15T04:32:52;7.33;;;5.87;;
974;SDS011;6115;49.296;10.602;2023-04-15T04:37:53;8.27;;;5.90;;
974;SDS011;6115;49.296;10.602;2023-04-15T04:42:53;9.17;;;6.80;;
974;SDS011;6115;49.296;10.602;2023-04-15T04:47:54;9.30;;;6.50;;
974;SDS011;6115;49.296;10.602;2023-04-15T04:52:54;11.20;;;7.60;;
974;SDS011;6115;49.296;10.602;2023-04-15T04:57:55;7.57;;;6.77;;
974;SDS011;6115;49.296;10.602;2023-04-15T05:02:55;10.93;;;7.67;;
974;SDS011;6115;49.296;10.602;2023-04-15T05:07:56;9.73;;;7.63;;
974;SDS011;6115;49.296;10.602;2023-04-15T05:12:57;11.63;;;7.93;;
974;SDS011;6115;49.296;10.602;2023-04-15T05:17:58;11.70;;;7.97;;
974;SDS011;6115;49.296;10.602;2023-04-15T05:22:58;11.47;;;7.80;;
974;SDS011;6115;49.296;10.602;2023-04-15T05:27:59;10.80;;;7.40;;
974;SDS011;6115;49.296;10.602;2023-04-15T05:33:00;8.73;;;7.57;;
974;SDS011;6115;49.296;10.602;2023-04-15T05:38:00;9.50;;;6.90;;
974;SDS011;6115;49.296;10.602;2023-04-15T05:43:01;10.70;;;7.33;;
974;SDS011;6115;49.296;10.602;2023-04-15T05:48:03;9.27;;;7.70;;
974;SDS011;6115;49.296;10.602;2023-04-15T05:53:04;8.50;;;7.03;;
974;SDS011;6115;49.296;10.602;2023-04-15T05:58:04;11.30;;;8.40;;
974;SDS011;6115;49.296;10.602;2023-04-15T06:03:05;10.50;;;8.30;;
974;SDS011;6115;49.296;10.602;2023-04-15T06:08:06;9.20;;;7.20;;
974;SDS011;6115;49.296;10.602;2023-04-15T06:13:07;8.33;;;7.20;;
974;SDS011;6115;49.296;10.602;2023-04-15T06:18:07;9.30;;;7.13;;
974;SDS011;6115;49.296;10.602;2023-04-15T06:23:08;7.97;;;6.40;;
974;SDS011;6115;49.296;10.602;2023-04-15T06:28:08;11.30;;;8.00;;
974;SDS011;6115;49.296;10.602;2023-04-15T06:33:09;9.90;;;7.50;;
974;SDS011;6115;49.296;10.602;2023-04-15T06:38:10;9.80;;;7.70;;
974;SDS011;6115;49.296;10.602;2023-04-15T06:43:10;9.77;;;7.80;;
974;SDS011;6115;49.296;10.602;2023-04-15T06:48:12;8.97;;;8.07;;
974;SDS011;6115;49.296;10.602;2023-04-15T06:53:13;10.70;;;7.50;;
974;SDS011;6115;49.296;10.602;2023-04-15T06:58:14;9.10;;;7.80;;
974;SDS011;6115;49.296;10.602;2023-04-15T07:03:14;10.47;;;8.10;;
974;SDS011;6115;49.296;10.602;2023-04-15T07:08:15;11.03;;;8.03;;
974;SDS011;6115;49.296;10.602;2023-04-15T07:13:15;8.73;;;7.10;;
974;SDS011;6115;49.296;10.602;2023-04-15T07:18:16;8.97;;;7.27;;
974;SDS011;6115;49.296;10.602;2023-04-15T07:23:18;8.63;;;6.00;;
974;SDS011;6115;49.296;10.602;2023-04-15T07:28:20;9.97;;;7.47;;
974;SDS011;6115;49.296;10.602;2023-04-15T07:33:20;8.10;;;6.60;;
974;SDS011;6115;49.296;10.602;2023-04-15T07:38:21;7.90;;;6.40;;
974;SDS011;6115;49.296;10.602;2023-04-15T07:43:22;9.50;;;6.30;;
974;SDS011;6115;49.296;10.602;2023-04-15T07:48:22;7.60;;;6.57;;
974;SDS011;6115;49.296;10.602;2023-04-15T07:53:23;9.00;;;6.17;;
974;SDS011;6115;49.296;10.602;2023-04-15T07:58:24;7.67;;;6.87;;
974;SDS011;6115;49.296;10.602;2023-04-15T08:03:26;8.13;;;5.73;;
974;SDS011;6115;49.296;10.602;2023-04-15T08:08:27;9.13;;;6.00;;
974;SDS011;6115;49.296;10.602;2023-04-15T08:13:27;6.80;;;5.37;;
974;SDS011;6115;49.296;10.602;2023-04-15T08:18:28;7.50;;;5.30;;
974;SDS011;6115;49.296;10.602;2023-04-15T08:23:28;6.10;;;4.23;;
974;SDS011;6115;49.296;10.602;2023-04-15T08:28:29;5.83;;;4.33;;
974;SDS011;6115;49.296;10.602;2023-04-15T08:33:30;5.73;;;4.57;;
974;SDS011;6115;49.296;10.602;2023-04-15T08:38:31;4.87;;;4.37;;
974;SDS011;6115;49.296;10.602;2023-04-15T08:43:34;6.47;;;4.50;;
974;SDS011;6115;49.296;10.602;2023-04-15T08:48:46;5.10;;;4.27;;
974;SDS011;6115;49.296;10.602;2023-04-15T08:53:48;5.07;;;4.17;;
974;SDS011;6115;49.296;10.602;2023-04-15T08:58:49;6.93;;;4.40;;
974;SDS011;6115;49.296;10.602;2023-04-15T09:03:50;4.97;;;4.37;;
974;SDS011;6115;49.296;10.602;2023-04-15T09:08:53;6.93;;;4.20;;
974;SDS011;6115;49.296;10.602;2023-04-15T09:13:53;6.50;;;4.47;;
974;SDS011;6115;49.296;10.602;2023-04-15T09:18:55;7.20;;;5.63;;
974;SDS011;6115;49.296;10.602;2023-04-15T09:23:57;5.80;;;5.10;;
974;SDS011;6115;49.296;10.602;2023-04-15T09:29:05;7.53;;;6.50;;
974;SDS011;6115;49.296;10.602;2023-04-15T09:34:08;5.60;;;4.77;;
974;SDS011;6115;49.296;10.602;2023-04-15T09:39:09;4.73;;;4.23;;
974;SDS011;6115;49.296;10.602;2023-04-15T09:44:25;8.27;;;5.00;;
974;SDS011;6115;49.296;10.602;2023-04-15T09:49:26;8.00;;;4.23;;
974;SDS011;6115;49.296;10.602;2023-04-15T09:54:34;4.43;;;4.03;;
974;SDS011;6115;49.296;10.602;2023-04-15T09:59:36;4.90;;;4.37;;
974;SDS011;6115;49.296;10.602;2023-04-15T10:04:39;6.30;;;4.73;;
974;SDS011;6115;49.296;10.602;2023-04-15T10:09:40;6.73;;;4.87;;
974;SDS011;6115;49.296;10.602;2023-04-15T10:14:42;6.07;;;4.07;;
974;SDS011;6115;49.296;10.602;2023-04-15T10:19:43;11.97;;;3.87;;
974;SDS011;6115;49.296;10.602;2023-04-15T10:24:45;4.33;;;3.93;;
974;SDS011;6115;49.296;10.602;2023-04-15T10:29:50;6.17;;;3.23;;
974;SDS011;6115;49.296;10.602;2023-04-15T10:34:51;4.77;;;3.77;;
974;SDS011;6115;49.296;10.602;2023-04-15T10:39:53;4.53;;;3.50;;
974;SDS011;6115;49.296;10.602;2023-04-15T10:44:55;5.97;;;3.73;;
974;SDS011;6115;49.296;10.602;2023-04-15T10:49:57;4.23;;;3.83;;
974;SDS011;6115;49.296;10.602;2023-04-15T10:55:03;4.70;;;4.20;;
974;SDS011;6115;49.296;10.602;2023-04-15T11:00:17;5.10;;;4.60;;
974;SDS011;6115;49.296;10.602;2023-04-15T11:05:21;4.40;;;4.00;;
974;SDS011;6115;49.296;10.602;2023-04-15T11:15:43;7.40;;;4.30;;
974;SDS011;6115;49.296;10.602;2023-04-15T11:20:49;7.40;;;3.87;;
974;SDS011;6115;49.296;10.602;2023-04-15T11:25:49;5.17;;;3.67;;
974;SDS011;6115;49.296;10.602;2023-04-15T11:30:50;4.00;;;3.10;;
974;SDS011;6115;49.296;10.602;2023-04-15T11:35:51;4.87;;;2.57;;
974;SDS011;6115;49.296;10.602;2023-04-15T11:40:53;4.27;;;2.50;;
974;SDS011;6115;49.296;10.602;2023-04-15T11:45:55;3.30;;;2.93;;
974;SDS011;6115;49.296;10.602;2023-04-15T11:56:02;3.10;;;2.00;;
974;SDS011;6115;49.296;10.602;2023-04-15T12:01:03;3.60;;;2.37;;
974;SDS011;6115;49.296;10.602;2023-04-15T12:06:10;3.87;;;2.50;;
974;SDS011;6115;49.296;10.602;2023-04-15T12:16:43;4.17;;;2.63;;
974;SDS011;6115;49.296;10.602;2023-04-15T12:21:46;2.47;;;2.17;;
974;SDS011;6115;49.296;10.602;2023-04-15T12:26:55;5.80;;;2.57;;
974;SDS011;6115;49.296;10.602;2023-04-15T12:36:59;2.50;;;2.30;;
974;SDS011;6115;49.296;10.602;2023-04-15T12:42:02;4.60;;;3.40;;
974;SDS011;6115;49.296;10.602;2023-04-15T12:47:03;3.07;;;2.30;;
974;SDS011;6115;49.296;10.602;2023-04-15T12:52:05;3.07;;;2.10;;
974;SDS011;6115;49.296;10.602;2023-04-15T12:57:06;2.83;;;2.20;;
974;SDS011;6115;49.296;10.602;2023-04-15T13:02:06;2.37;;;2.03;;
974;SDS011;6115;49.296;10.602;2023-04-15T13:07:07;1.57;;;1.47;;
974;SDS011;6115;49.296;10.602;2023-04-15T13:12:08;2.30;;;1.97;;
974;SDS011;6115;49.296;10.602;2023-04-15T13:17:09;4.23;;;2.20;;
974;SDS011;6115;49.296;10.602;2023-04-15T13:22:10;2.10;;;1.80;;
974;SDS011;6115;49.296;10.602;2023-04-15T13:27:11;2.10;;;1.63;;
974;SDS011;6115;49.296;10.602;2023-04-15T13:32:12;2.00;;;1.77;;
974;SDS011;6115;49.296;10.602;2023-04-15T13:37:12;3.63;;;2.20;;
974;SDS011;6115;49.296;10.602;2023-04-15T13:42:14;3.03;;;2.40;;
974;SDS011;6115;49.296;10.602;2023-04-15T13:47:14;2.87;;;2.30;;
974;SDS011;6115;49.296;10.602;2023-04-15T13:52:15;1.60;;;1.47;;
974;SDS011;6115;49.296;10.602;2023-04-15T13:57:15;2.50;;;1.73;;
974;SDS011;6115;49.296;10.602;2023-04-15T14:02:16;2.83;;;1.83;;
974;SDS011;6115;49.296;10.602;2023-04-15T14:07:16;2.00;;;1.80;;
974;SDS011;6115;49.296;10.602;2023-04-15T14:12:17;2.20;;;1.80;;
974;SDS011;6115;49.296;10.602;2023-04-15T14:17:17;2.07;;;1.87;;
974;SDS011;6115;49.296;10.602;2023-04-15T14:22:18;2.83;;;2.40;;
974;SDS011;6115;49.296;10.602;2023-04-15T14:27:19;3.00;;;2.40;;
974;SDS011;6115;49.296;10.602;2023-04-15T14:32:19;3.00;;;2.67;;
974;SDS011;6115;49.296;10.602;2023-04-15T14:37:20;2.97;;;2.30;;
974;SDS011;6115;49.296;10.602;2023-04-15T14:42:21;2.90;;;2.40;;
974;SDS011;6115;49.296;10.602;2023-04-15T14:47:22;2.90;;;2.40;;
974;SDS011;6115;49.296;10.602;2023-04-15T14:52:23;5.83;;;2.90;;
974;SDS011;6115;49.296;10.602;2023-04-15T14:57:23;3.43;;;2.90;;
974;SDS011;6115;49.296;10.602;2023-04-15T15:02:24;3.40;;;2.70;;
974;SDS011;6115;49.296;10.602;2023-04-15T15:07:24;4.10;;;3.00;;
974;SDS011;6115;49.296;10.602;2023-04-15T15:12:25;3.93;;;3.33;;
974;SDS011;6115;49.296;10.602;2023-04-15T15:17:25;3.00;;;2.60;;
974;SDS011;6115;49.296;10.602;2023-04-15T15:22:26;4.60;;;3.27;;
974;SDS011;6115;49.296;10.602;2023-04-15T15:27:27;4.67;;;3.87;;
974;SDS011;6115;49.296;10.602;2023-04-15T15:32:28;4.03;;;3.20;;
974;SDS011;6115;49.296;10.602;2023-04-15T15:37:29;3.80;;;3.33;;
974;SDS011;6115;49.296;10.602;2023-04-15T15:42:30;7.57;;;6.77;;
974;SDS011;6115;49.296;10.602;2023-04-15T15:47:32;5.10;;;4.17;;
974;SDS011;6115;49.296;10.602;2023-04-15T15:52:32;6.90;;;4.10;;
974;SDS011;6115;49.296;10.602;2023-04-15T15:57:33;5.67;;;4.57;;
974;SDS011;6115;49.296;10.602;2023-04-15T16:02:34;6.87;;;5.87;;
974;SDS011;6115;49.296;10.602;2023-04-15T16:07:35;5.50;;;4.70;;
974;SDS011;6115;49.296;10.602;2023-04-15T16:12:36;6.83;;;5.83;;
974;SDS011;6115;49.296;10.602;2023-04-15T16:17:36;5.70;;;4.97;;
974;SDS011;6115;49.296;10.602;2023-04-15T16:22:37;5.30;;;4.77;;
974;SDS011;6115;49.296;10.602;2023-04-15T16:27:38;5.93;;;5.33;;
974;SDS011;6115;49.296;10.602;2023-04-15T16:32:39;7.47;;;6.67;;
974;SDS011;6115;49.296;10.602;2023-04-15T16:37:39;5.30;;;4.80;;
974;SDS011;6115;49.296;10.602;2023-04-15T16:42:40;4.33;;;3.93;;
974;SDS011;6115;49.296;10.602;2023-04-15T16:47:42;5.60;;;5.00;;
974;SDS011;6115;49.296;10.602;2023-04-15T16:52:43;13.13;;;9.00;;
974;SDS011;6115;49.296;10.602;2023-04-15T16:57:43;8.13;;;5.70;;
974;SDS011;6115;49.296;10.602;2023-04-15T17:02:44;5.00;;;4.40;;
974;SDS011;6115;49.296;10.602;2023-04-15T17:07:44;6.67;;;4.83;;
974;SDS011;6115;49.296;10.602;2023-04-15T17:12:45;3.90;;;3.50;;
974;SDS011;6115;49.296;10.602;2023-04-15T17:17:45;4.53;;;3.97;;
974;SDS011;6115;49.296;10.602;2023-04-15T17:22:46;5.23;;;4.10;;
974;SDS011;6115;49.296;10.602;2023-04-15T17:27:47;7.53;;;5.87;;
974;SDS011;6115;49.296;10.602;2023-04-15T17:32:48;7.90;;;6.03;;
974;SDS011;6115;49.296;10.602;2023-04-15T17:37:50;19.07;;;15.60;;
974;SDS011;6115;49.296;10.602;2023-04-15T17:42:50;9.20;;;6.97;;
974;SDS011;6115;49.296;10.602;2023-04-15T17:47:51;6.70;;;4.77;;
974;SDS011;6115;49.296;10.602;2023-04-15T17:52:51;7.50;;;5.67;;
974;SDS011;6115;49.296;10.602;2023-04-15T17:57:52;4.70;;;3.57;;
974;SDS011;6115;49.296;10.602;2023-04-15T18:02:55;3.80;;;3.50;;
974;SDS011;6115;49.296;10.602;2023-04-15T18:07:55;5.10;;;4.60;;
974;SDS011;6115;49.296;10.602;2023-04-15T18:12:56;5.33;;;4.83;;
974;SDS011;6115;49.296;10.602;2023-04-15T18:17:58;5.90;;;4.40;;
974;SDS011;6115;49.296;10.602;2023-04-15T18:22:59;3.90;;;3.50;;
974;SDS011;6115;49.296;10.602;2023-04-15T18:27:59;6.20;;;5.60;;
974;SDS011;6115;49.296;10.602;2023-04-15T18:33:00;4.53;;;4.03;;
974;SDS011;6115;49.296;10.602;2023-04-15T18:38:00;5.70;;;5.10;;
974;SDS011;6115;49.296;10.602;2023-04-15T18:43:01;3.13;;;2.77;;
974;SDS011;6115;49.296;10.602;2023-04-15T18:48:03;3.70;;;3.30;;
974;SDS011;6115;49.296;10.602;2023-04-15T18:53:04;4.37;;;3.80;;
974;SDS011;6115;49.296;10.602;2023-04-15T18:58:05;4.57;;;3.60;;
974;SDS011;6115;49.296;10.602;2023-04-15T19:03:06;4.63;;;3.30;;
974;SDS011;6115;49.296;10.602;2023-04-15T19:08:07;5.60;;;4.63;;
974;SDS011;6115;49.296;10.602;2023-04-15T19:13:07;7.17;;;5.80;;
974;SDS011;6115;49.296;10.602;2023-04-15T19:18:08;5.70;;;4.63;;
974;SDS011;6115;49.296;10.602;2023-04-15T19:23:09;6.40;;;4.53;;
974;SDS011;6115;49.296;10.602;2023-04-15T19:28:10;5.23;;;4.10;;
974;SDS011;6115;49.296;10.602;2023-04-15T19:33:10;4.53;;;4.00;;
974;SDS011;6115;49.296;10.602;2023-04-15T19:38:11;5.20;;;4.10;;
974;SDS011;6115;49.296;10.602;2023-04-15T19:43:11;3.67;;;3.20;;
974;SDS011;6115;49.296;10.602;2023-04-15T19:48:13;4.33;;;3.93;;
974;SDS011;6115;49.296;10.602;2023-04-15T19:53:15;4.43;;;4.03;;
974;SDS011;6115;49.296;10.602;2023-04-15T19:58:15;4.00;;;3.60;;
974;SDS011;6115;49.296;10.602;2023-04-15T20:03:16;5.03;;;4.57;;
974;SDS011;6115;49.296;10.602;2023-04-15T20:08:18;6.80;;;5.07;;
974;SDS011;6115;49.296;10.602;2023-04-15T20:13:19;5.67;;;5.07;;
974;SDS011;6115;49.296;10.602;2023-04-15T20:18:21;5.37;;;4.83;;
974;SDS011;6115;49.296;10.602;2023-04-15T20:23:21;6.93;;;6.10;;
974;SDS011;6115;49.296;10.602;2023-04-15T20:28:22;10.23;;;8.03;;
974;SDS011;6115;49.296;10.602;2023-04-15T20:33:25;6.50;;;5.57;;
974;SDS011;6115;49.296;10.602;2023-04-15T20:38:26;6.00;;;5.33;;
974;SDS011;6115;49.296;10.602;2023-04-15T20:43:26;6.53;;;5.57;;
974;SDS011;6115;49.296;10.602;2023-04-15T20:48:27;5.90;;;5.03;;
974;SDS011;6115;49.296;10.602;2023-04-15T20:53:27;8.07;;;5.37;;
974;SDS011;6115;49.296;10.602;2023-04-15T20:58:28;6.63;;;5.37;;
974;SDS011;6115;49.296;10.602;2023-04-15T21:03:28;7.47;;;5.43;;
974;SDS011;6115;49.296;10.602;2023-04-15T21:08:29;8.07;;;5.50;;
974;SDS011;6115;49.296;10.602;2023-04-15T21:13:30;7.10;;;5.50;;
974;SDS011;6115;49.296;10.602;2023-04-15T21:18:31;8.37;;;5.87;;
974;SDS011;6115;49.296;10.602;2023-04-15T21:23:31;6.17;;;5.27;;
974;SDS011;6115;49.296;10.602;2023-04-15T21:28:34;9.10;;;6.10;;
974;SDS011;6115;49.296;10.602;2023-04-15T21:33:36;8.60;;;6.70;;
974;SDS011;6115;49.296;10.602;2023-04-15T21:38:36;8.70;;;7.40;;
974;SDS011;6115;49.296;10.602;2023-04-15T21:43:37;9.00;;;7.20;;
974;SDS011;6115;49.296;10.602;2023-04-15T21:48:37;9.93;;;7.30;;
974;SDS011;6115;49.296;10.602;2023-04-15T21:53:38;9.33;;;6.40;;
974;SDS011;6115;49.296;10.602;2023-04-15T21:58:39;7.57;;;6.17;;
974;SDS011;6115;49.296;10.602;2023-04-15T22:03:40;11.73;;;8.10;;
974;SDS011;6115;49.296;10.602;2023-04-15T22:08:40;10.03;;;7.40;;
974;SDS011;6115;49.296;10.602;2023-04-15T22:13:42;9.50;;;7.13;;
974;SDS011;6115;49.296;10.602;2023-04-15T22:18:42;9.17;;;7.53;;
974;SDS011;6115;49.296;10.602;2023-04-15T22:23:49;9.30;;;7.50;;
974;SDS011;6115;49.296;10.602;2023-04-15T22:28:51;9.30;;;6.90;;
974;SDS011;6115;49.296;10.602;2023-04-15T22:33:52;10.87;;;7.80;;
974;SDS011;6115;49.296;10.602;2023-04-15T22:38:52;11.03;;;8.50;;
974;SDS011;6115;49.296;10.602;2023-04-15T22:43:53;10.47;;;7.80;;
974;SDS011;6115;49.296;10.602;2023-04-15T22:48:53;11.37;;;7.97;;
974;SDS011;6115;49.296;10.602;2023-04-15T22:53:54;11.87;;;8.50;;
974;SDS011;6115;49.296;10.602;2023-04-15T22:58:55;11.37;;;8.50;;
974;SDS011;6115;49.296;10.602;2023-04-15T23:03:55;14.70;;;9.70;;
974;SDS011;6115;49.296;10.602;2023-04-15T23:08:56;14.17;;;9.10;;
974;SDS011;6115;49.296;10.602;2023-04-15T23:13:56;12.47;;;9.70;;
974;SDS011;6115;49.296;10.602;2023-04-15T23:18:57;15.20;;;9.67;;
974;SDS011;6115;49.296;10.602;2023-04-15T23:23:57;13.23;;;9.00;;
974;SDS011;6115;49.296;10.602;2023-04-15T23:28:58;16.80;;;10.93;;
974;SDS011;6115;49.296;10.602;2023-04-15T23:33:58;14.50;;;9.57;;
974;SDS011;6115;49.296;10.602;2023-04-15T23:38:59;15.20;;;9.50;;
974;SDS011;6115;49.296;10.602;2023-04-15T23:44:00;13.10;;;8.80;;
974;SDS011;6115;49.296;10.602;2023-04-15T23:49:00;17.77;;;9.30;;
974;SDS011;6115;49.296;10.602;2023-04-15T23:54:01;15.20;;;8.60;;
974;SDS011;6115;49.296;10.602;2023-04-15T23:59:02;12.17;;;8.07;;
